Terminal Aerodrome Forecast
Issued by NWS

Home | Current Version | Previous Version | Graphics & Text | Print | Product List | Glossary Off
Versions: 1 2 3 4 5 6 7 8 9 10 11 12 13 14 15 16 17 18

000
FTUS43 KDDC 102320
TAFGCK
TAF
KGCK 102320Z 1100/1124 27007KT P6SM SKC
     FM110900 30010KT P6SM SKC
     FM111500 34023G33KT P6SM SKC
     FM112200 35010G20KT P6SM SKC=

USA.gov is the U.S. government's official web portal to all federal, state and local government web resources and services.